sensor_id;sensor_type;location;lat;lon;timestamp;P1;durP1;ratioP1;P2;durP2;ratioP2
11396;SDS011;5754;43.726;7.416;2023-06-10T00:00:31;9.27;;;6.07;;
11396;SDS011;5754;43.726;7.416;2023-06-10T00:03:08;9.57;;;6.50;;
11396;SDS011;5754;43.726;7.416;2023-06-10T00:05:43;10.70;;;6.15;;
11396;SDS011;5754;43.726;7.416;2023-06-10T00:08:17;8.07;;;6.30;;
11396;SDS011;5754;43.726;7.416;2023-06-10T00:10:53;9.13;;;6.15;;
11396;SDS011;5754;43.726;7.416;2023-06-10T00:13:29;8.98;;;6.40;;
11396;SDS011;5754;43.726;7.416;2023-06-10T00:16:04;6.93;;;6.10;;
11396;SDS011;5754;43.726;7.416;2023-06-10T00:18:39;9.57;;;6.62;;
11396;SDS011;5754;43.726;7.416;2023-06-10T00:21:14;7.78;;;6.00;;
11396;SDS011;5754;43.726;7.416;2023-06-10T00:23:49;11.05;;;5.75;;
11396;SDS011;5754;43.726;7.416;2023-06-10T00:26:24;7.47;;;6.03;;
11396;SDS011;5754;43.726;7.416;2023-06-10T00:29:00;9.00;;;5.90;;
11396;SDS011;5754;43.726;7.416;2023-06-10T00:31:35;10.60;;;6.47;;
11396;SDS011;5754;43.726;7.416;2023-06-10T00:34:13;6.78;;;6.05;;
11396;SDS011;5754;43.726;7.416;2023-06-10T00:36:49;7.87;;;5.70;;
11396;SDS011;5754;43.726;7.416;2023-06-10T00:39:24;8.23;;;6.62;;
11396;SDS011;5754;43.726;7.416;2023-06-10T00:41:59;8.90;;;6.27;;
11396;SDS011;5754;43.726;7.416;2023-06-10T00:44:35;7.18;;;6.32;;
11396;SDS011;5754;43.726;7.416;2023-06-10T00:47:10;6.82;;;6.18;;
11396;SDS011;5754;43.726;7.416;2023-06-10T00:49:46;9.30;;;6.60;;
11396;SDS011;5754;43.726;7.416;2023-06-10T00:52:20;9.57;;;6.50;;
11396;SDS011;5754;43.726;7.416;2023-06-10T00:54:55;8.90;;;6.50;;
11396;SDS011;5754;43.726;7.416;2023-06-10T00:57:30;9.93;;;6.37;;
11396;SDS011;5754;43.726;7.416;2023-06-10T01:00:06;9.25;;;5.97;;
11396;SDS011;5754;43.726;7.416;2023-06-10T01:02:42;7.50;;;5.82;;
11396;SDS011;5754;43.726;7.416;2023-06-10T01:05:18;8.85;;;6.55;;
11396;SDS011;5754;43.726;7.416;2023-06-10T01:08:40;8.88;;;5.93;;
11396;SDS011;5754;43.726;7.416;2023-06-10T01:11:20;7.67;;;5.93;;
11396;SDS011;5754;43.726;7.416;2023-06-10T01:13:55;9.13;;;5.70;;
11396;SDS011;5754;43.726;7.416;2023-06-10T01:16:31;8.43;;;6.60;;
11396;SDS011;5754;43.726;7.416;2023-06-10T01:19:07;7.55;;;6.35;;
11396;SDS011;5754;43.726;7.416;2023-06-10T01:21:42;8.80;;;6.27;;
11396;SDS011;5754;43.726;7.416;2023-06-10T01:24:24;9.10;;;6.00;;
11396;SDS011;5754;43.726;7.416;2023-06-10T01:27:00;9.95;;;6.43;;
11396;SDS011;5754;43.726;7.416;2023-06-10T01:29:43;8.97;;;6.23;;
11396;SDS011;5754;43.726;7.416;2023-06-10T01:32:33;8.17;;;6.33;;
11396;SDS011;5754;43.726;7.416;2023-06-10T01:35:09;9.45;;;6.28;;
11396;SDS011;5754;43.726;7.416;2023-06-10T01:37:45;7.60;;;6.00;;
11396;SDS011;5754;43.726;7.416;2023-06-10T01:40:20;9.37;;;6.50;;
11396;SDS011;5754;43.726;7.416;2023-06-10T01:42:56;7.60;;;6.00;;
11396;SDS011;5754;43.726;7.416;2023-06-10T01:45:33;7.93;;;5.80;;
11396;SDS011;5754;43.726;7.416;2023-06-10T01:48:07;8.33;;;6.60;;
11396;SDS011;5754;43.726;7.416;2023-06-10T01:50:44;8.38;;;5.85;;
11396;SDS011;5754;43.726;7.416;2023-06-10T01:53:19;6.33;;;5.73;;
11396;SDS011;5754;43.726;7.416;2023-06-10T01:55:54;8.77;;;6.20;;
11396;SDS011;5754;43.726;7.416;2023-06-10T01:58:29;9.20;;;5.90;;
11396;SDS011;5754;43.726;7.416;2023-06-10T02:01:04;8.13;;;6.10;;
11396;SDS011;5754;43.726;7.416;2023-06-10T02:03:41;7.93;;;6.03;;
11396;SDS011;5754;43.726;7.416;2023-06-10T02:06:16;9.50;;;6.23;;
11396;SDS011;5754;43.726;7.416;2023-06-10T02:08:52;7.87;;;5.93;;
11396;SDS011;5754;43.726;7.416;2023-06-10T02:11:27;6.77;;;6.07;;
11396;SDS011;5754;43.726;7.416;2023-06-10T02:14:03;8.45;;;6.35;;
11396;SDS011;5754;43.726;7.416;2023-06-10T02:16:38;7.70;;;6.10;;
11396;SDS011;5754;43.726;7.416;2023-06-10T02:19:13;9.40;;;6.03;;
11396;SDS011;5754;43.726;7.416;2023-06-10T02:21:48;8.85;;;6.22;;
11396;SDS011;5754;43.726;7.416;2023-06-10T02:24:22;8.70;;;6.10;;
11396;SDS011;5754;43.726;7.416;2023-06-10T02:26:58;10.10;;;6.27;;
11396;SDS011;5754;43.726;7.416;2023-06-10T02:29:34;8.43;;;6.43;;
11396;SDS011;5754;43.726;7.416;2023-06-10T02:32:09;7.18;;;5.80;;
11396;SDS011;5754;43.726;7.416;2023-06-10T02:34:44;8.23;;;5.85;;
11396;SDS011;5754;43.726;7.416;2023-06-10T02:37:20;7.57;;;5.95;;
11396;SDS011;5754;43.726;7.416;2023-06-10T02:39:55;7.55;;;5.95;;
11396;SDS011;5754;43.726;7.416;2023-06-10T02:42:33;8.27;;;6.33;;
11396;SDS011;5754;43.726;7.416;2023-06-10T02:45:09;8.00;;;5.93;;
11396;SDS011;5754;43.726;7.416;2023-06-10T02:47:46;8.40;;;6.10;;
11396;SDS011;5754;43.726;7.416;2023-06-10T02:50:21;7.43;;;5.50;;
11396;SDS011;5754;43.726;7.416;2023-06-10T02:53:03;8.00;;;5.53;;
11396;SDS011;5754;43.726;7.416;2023-06-10T02:55:53;6.40;;;5.80;;
11396;SDS011;5754;43.726;7.416;2023-06-10T02:58:30;7.20;;;5.27;;
11396;SDS011;5754;43.726;7.416;2023-06-10T03:01:08;7.23;;;5.47;;
11396;SDS011;5754;43.726;7.416;2023-06-10T03:04:25;9.15;;;5.45;;
11396;SDS011;5754;43.726;7.416;2023-06-10T03:07:11;7.23;;;5.93;;
11396;SDS011;5754;43.726;7.416;2023-06-10T03:09:46;7.90;;;5.73;;
11396;SDS011;5754;43.726;7.416;2023-06-10T03:12:24;7.68;;;5.70;;
11396;SDS011;5754;43.726;7.416;2023-06-10T03:15:01;8.00;;;5.37;;
11396;SDS011;5754;43.726;7.416;2023-06-10T03:17:38;7.10;;;5.17;;
11396;SDS011;5754;43.726;7.416;2023-06-10T03:20:13;6.13;;;5.43;;
11396;SDS011;5754;43.726;7.416;2023-06-10T03:22:50;8.23;;;5.23;;
11396;SDS011;5754;43.726;7.416;2023-06-10T03:25:25;7.13;;;5.53;;
11396;SDS011;5754;43.726;7.416;2023-06-10T03:28:01;8.63;;;5.47;;
11396;SDS011;5754;43.726;7.416;2023-06-10T03:30:36;6.57;;;5.73;;
11396;SDS011;5754;43.726;7.416;2023-06-10T03:33:12;7.20;;;5.70;;
11396;SDS011;5754;43.726;7.416;2023-06-10T03:35:48;7.53;;;5.30;;
11396;SDS011;5754;43.726;7.416;2023-06-10T03:38:23;6.87;;;5.70;;
11396;SDS011;5754;43.726;7.416;2023-06-10T03:40:59;8.00;;;5.80;;
11396;SDS011;5754;43.726;7.416;2023-06-10T03:43:34;6.40;;;5.40;;
11396;SDS011;5754;43.726;7.416;2023-06-10T03:46:09;6.93;;;5.70;;
11396;SDS011;5754;43.726;7.416;2023-06-10T03:48:45;9.30;;;5.30;;
11396;SDS011;5754;43.726;7.416;2023-06-10T03:51:20;7.40;;;5.50;;
11396;SDS011;5754;43.726;7.416;2023-06-10T03:53:55;7.47;;;5.40;;
11396;SDS011;5754;43.726;7.416;2023-06-10T03:56:31;6.10;;;5.33;;
11396;SDS011;5754;43.726;7.416;2023-06-10T03:59:06;6.40;;;5.40;;
11396;SDS011;5754;43.726;7.416;2023-06-10T04:01:41;8.38;;;5.47;;
11396;SDS011;5754;43.726;7.416;2023-06-10T04:04:17;8.07;;;5.80;;
11396;SDS011;5754;43.726;7.416;2023-06-10T04:06:52;6.03;;;5.20;;
11396;SDS011;5754;43.726;7.416;2023-06-10T04:09:30;12.23;;;5.77;;
11396;SDS011;5754;43.726;7.416;2023-06-10T04:12:05;6.30;;;5.70;;
11396;SDS011;5754;43.726;7.416;2023-06-10T04:14:42;7.10;;;5.07;;
11396;SDS011;5754;43.726;7.416;2023-06-10T04:17:18;7.10;;;5.23;;
11396;SDS011;5754;43.726;7.416;2023-06-10T04:19:53;6.43;;;5.10;;
11396;SDS011;5754;43.726;7.416;2023-06-10T04:22:29;6.00;;;5.40;;
11396;SDS011;5754;43.726;7.416;2023-06-10T04:25:04;6.15;;;5.60;;
11396;SDS011;5754;43.726;7.416;2023-06-10T04:27:39;6.63;;;5.37;;
11396;SDS011;5754;43.726;7.416;2023-06-10T04:30:15;8.77;;;6.33;;
11396;SDS011;5754;43.726;7.416;2023-06-10T04:32:50;6.50;;;5.55;;
11396;SDS011;5754;43.726;7.416;2023-06-10T04:35:39;7.20;;;5.87;;
11396;SDS011;5754;43.726;7.416;2023-06-10T04:38:16;8.40;;;5.20;;
11396;SDS011;5754;43.726;7.416;2023-06-10T04:40:52;6.82;;;5.25;;
11396;SDS011;5754;43.726;7.416;2023-06-10T04:43:27;8.17;;;5.43;;
11396;SDS011;5754;43.726;7.416;2023-06-10T04:46:03;6.67;;;5.30;;
11396;SDS011;5754;43.726;7.416;2023-06-10T04:48:38;6.37;;;5.28;;
11396;SDS011;5754;43.726;7.416;2023-06-10T04:51:14;6.93;;;5.37;;
11396;SDS011;5754;43.726;7.416;2023-06-10T04:53:48;8.07;;;5.70;;
11396;SDS011;5754;43.726;7.416;2023-06-10T04:56:23;6.33;;;5.43;;
11396;SDS011;5754;43.726;7.416;2023-06-10T04:58:58;7.18;;;5.68;;
11396;SDS011;5754;43.726;7.416;2023-06-10T05:01:34;7.68;;;6.20;;
11396;SDS011;5754;43.726;7.416;2023-06-10T05:04:08;7.30;;;5.70;;
11396;SDS011;5754;43.726;7.416;2023-06-10T05:06:45;8.75;;;5.47;;
11396;SDS011;5754;43.726;7.416;2023-06-10T05:09:24;7.75;;;5.90;;
11396;SDS011;5754;43.726;7.416;2023-06-10T05:12:00;7.10;;;5.57;;
11396;SDS011;5754;43.726;7.416;2023-06-10T05:14:35;7.57;;;5.73;;
11396;SDS011;5754;43.726;7.416;2023-06-10T05:17:10;6.90;;;5.75;;
11396;SDS011;5754;43.726;7.416;2023-06-10T05:19:47;10.85;;;5.75;;
11396;SDS011;5754;43.726;7.416;2023-06-10T05:22:22;7.55;;;5.87;;
11396;SDS011;5754;43.726;7.416;2023-06-10T05:25:00;6.78;;;5.35;;
11396;SDS011;5754;43.726;7.416;2023-06-10T05:27:36;6.75;;;5.37;;
11396;SDS011;5754;43.726;7.416;2023-06-10T05:30:12;8.98;;;5.40;;
11396;SDS011;5754;43.726;7.416;2023-06-10T05:32:48;8.13;;;5.80;;
11396;SDS011;5754;43.726;7.416;2023-06-10T05:35:23;5.75;;;5.03;;
11396;SDS011;5754;43.726;7.416;2023-06-10T05:37:58;8.63;;;5.57;;
11396;SDS011;5754;43.726;7.416;2023-06-10T05:40:37;8.60;;;5.37;;
11396;SDS011;5754;43.726;7.416;2023-06-10T05:43:12;7.17;;;5.33;;
11396;SDS011;5754;43.726;7.416;2023-06-10T05:45:48;9.65;;;5.62;;
11396;SDS011;5754;43.726;7.416;2023-06-10T05:48:23;5.80;;;5.15;;
11396;SDS011;5754;43.726;7.416;2023-06-10T05:51:00;7.45;;;5.53;;
11396;SDS011;5754;43.726;7.416;2023-06-10T05:53:35;8.63;;;5.23;;
11396;SDS011;5754;43.726;7.416;2023-06-10T05:56:10;7.15;;;5.20;;
11396;SDS011;5754;43.726;7.416;2023-06-10T05:58:44;6.85;;;6.00;;
11396;SDS011;5754;43.726;7.416;2023-06-10T06:01:20;10.07;;;7.80;;
11396;SDS011;5754;43.726;7.416;2023-06-10T06:03:58;8.07;;;5.43;;
11396;SDS011;5754;43.726;7.416;2023-06-10T06:06:32;6.35;;;5.15;;
11396;SDS011;5754;43.726;7.416;2023-06-10T06:09:07;6.10;;;5.50;;
11396;SDS011;5754;43.726;7.416;2023-06-10T06:11:42;7.07;;;5.28;;
11396;SDS011;5754;43.726;7.416;2023-06-10T06:14:16;10.40;;;5.97;;
11396;SDS011;5754;43.726;7.416;2023-06-10T06:16:51;7.78;;;5.03;;
11396;SDS011;5754;43.726;7.416;2023-06-10T06:19:26;7.70;;;5.35;;
11396;SDS011;5754;43.726;7.416;2023-06-10T06:22:02;8.93;;;6.18;;
11396;SDS011;5754;43.726;7.416;2023-06-10T06:24:37;8.35;;;5.60;;
11396;SDS011;5754;43.726;7.416;2023-06-10T06:27:12;11.73;;;5.93;;
11396;SDS011;5754;43.726;7.416;2023-06-10T06:29:47;7.62;;;5.85;;
11396;SDS011;5754;43.726;7.416;2023-06-10T06:32:21;8.52;;;5.20;;
11396;SDS011;5754;43.726;7.416;2023-06-10T06:34:58;8.65;;;5.60;;
11396;SDS011;5754;43.726;7.416;2023-06-10T06:37:33;7.25;;;5.30;;
11396;SDS011;5754;43.726;7.416;2023-06-10T06:40:18;5.68;;;5.05;;
11396;SDS011;5754;43.726;7.416;2023-06-10T06:42:53;7.43;;;5.23;;
11396;SDS011;5754;43.726;7.416;2023-06-10T06:45:46;6.30;;;4.53;;
11396;SDS011;5754;43.726;7.416;2023-06-10T06:48:20;8.32;;;6.03;;
11396;SDS011;5754;43.726;7.416;2023-06-10T06:51:08;7.05;;;5.20;;
11396;SDS011;5754;43.726;7.416;2023-06-10T06:53:43;8.02;;;4.62;;
11396;SDS011;5754;43.726;7.416;2023-06-10T06:56:21;7.05;;;4.97;;
11396;SDS011;5754;43.726;7.416;2023-06-10T06:58:56;5.80;;;4.43;;
11396;SDS011;5754;43.726;7.416;2023-06-10T07:01:32;5.53;;;4.22;;
11396;SDS011;5754;43.726;7.416;2023-06-10T07:04:09;5.75;;;4.40;;
11396;SDS011;5754;43.726;7.416;2023-06-10T07:09:27;5.68;;;4.32;;
11396;SDS011;5754;43.726;7.416;2023-06-10T07:12:03;5.90;;;4.68;;
11396;SDS011;5754;43.726;7.416;2023-06-10T07:14:38;7.85;;;4.40;;
11396;SDS011;5754;43.726;7.416;2023-06-10T07:17:13;6.47;;;4.47;;
11396;SDS011;5754;43.726;7.416;2023-06-10T07:19:48;4.72;;;4.28;;
11396;SDS011;5754;43.726;7.416;2023-06-10T07:22:23;5.85;;;4.93;;
11396;SDS011;5754;43.726;7.416;2023-06-10T07:24:58;7.07;;;4.15;;
11396;SDS011;5754;43.726;7.416;2023-06-10T07:27:33;4.80;;;4.25;;
11396;SDS011;5754;43.726;7.416;2023-06-10T07:30:10;6.87;;;4.22;;
11396;SDS011;5754;43.726;7.416;2023-06-10T07:32:45;5.10;;;3.95;;
11396;SDS011;5754;43.726;7.416;2023-06-10T07:35:20;4.75;;;4.28;;
11396;SDS011;5754;43.726;7.416;2023-06-10T07:37:54;8.07;;;4.32;;
11396;SDS011;5754;43.726;7.416;2023-06-10T07:40:29;7.47;;;4.00;;
11396;SDS011;5754;43.726;7.416;2023-06-10T07:43:04;5.22;;;4.50;;
11396;SDS011;5754;43.726;7.416;2023-06-10T07:45:40;9.40;;;4.72;;
11396;SDS011;5754;43.726;7.416;2023-06-10T07:48:15;6.28;;;4.25;;
11396;SDS011;5754;43.726;7.416;2023-06-10T07:50:51;6.32;;;4.62;;
11396;SDS011;5754;43.726;7.416;2023-06-10T07:53:26;5.00;;;4.37;;
11396;SDS011;5754;43.726;7.416;2023-06-10T07:56:02;7.10;;;5.00;;
11396;SDS011;5754;43.726;7.416;2023-06-10T07:58:36;5.65;;;4.82;;
11396;SDS011;5754;43.726;7.416;2023-06-10T08:01:11;6.18;;;5.00;;
11396;SDS011;5754;43.726;7.416;2023-06-10T08:03:50;5.68;;;4.78;;
11396;SDS011;5754;43.726;7.416;2023-06-10T08:06:25;5.97;;;4.75;;
11396;SDS011;5754;43.726;7.416;2023-06-10T08:09:00;9.07;;;5.15;;
11396;SDS011;5754;43.726;7.416;2023-06-10T08:11:34;7.50;;;5.28;;
11396;SDS011;5754;43.726;7.416;2023-06-10T08:14:09;5.47;;;4.43;;
11396;SDS011;5754;43.726;7.416;2023-06-10T08:16:44;5.62;;;4.70;;
11396;SDS011;5754;43.726;7.416;2023-06-10T08:19:19;5.12;;;4.62;;
11396;SDS011;5754;43.726;7.416;2023-06-10T08:21:54;7.53;;;5.18;;
11396;SDS011;5754;43.726;7.416;2023-06-10T08:24:30;5.78;;;4.82;;
11396;SDS011;5754;43.726;7.416;2023-06-10T08:27:05;7.45;;;5.15;;
11396;SDS011;5754;43.726;7.416;2023-06-10T08:29:43;5.75;;;4.68;;
11396;SDS011;5754;43.726;7.416;2023-06-10T08:32:18;5.68;;;5.18;;
11396;SDS011;5754;43.726;7.416;2023-06-10T08:34:54;6.45;;;4.97;;
11396;SDS011;5754;43.726;7.416;2023-06-10T08:37:29;8.80;;;5.43;;
11396;SDS011;5754;43.726;7.416;2023-06-10T08:40:05;6.95;;;4.82;;
11396;SDS011;5754;43.726;7.416;2023-06-10T08:42:45;6.20;;;5.15;;
11396;SDS011;5754;43.726;7.416;2023-06-10T08:45:22;8.38;;;5.40;;
11396;SDS011;5754;43.726;7.416;2023-06-10T08:47:58;6.47;;;5.87;;
11396;SDS011;5754;43.726;7.416;2023-06-10T08:50:35;5.90;;;5.30;;
11396;SDS011;5754;43.726;7.416;2023-06-10T08:53:11;6.78;;;5.87;;
11396;SDS011;5754;43.726;7.416;2023-06-10T08:55:50;6.55;;;5.18;;
11396;SDS011;5754;43.726;7.416;2023-06-10T08:58:28;6.40;;;5.30;;
11396;SDS011;5754;43.726;7.416;2023-06-10T09:01:04;6.05;;;5.45;;
11396;SDS011;5754;43.726;7.416;2023-06-10T09:03:51;6.37;;;5.75;;
11396;SDS011;5754;43.726;7.416;2023-06-10T09:06:26;6.62;;;5.78;;
11396;SDS011;5754;43.726;7.416;2023-06-10T09:09:00;7.25;;;5.72;;
11396;SDS011;5754;43.726;7.416;2023-06-10T09:11:38;9.40;;;5.87;;
11396;SDS011;5754;43.726;7.416;2023-06-10T09:14:13;6.43;;;5.82;;
11396;SDS011;5754;43.726;7.416;2023-06-10T09:16:48;7.70;;;6.20;;
11396;SDS011;5754;43.726;7.416;2023-06-10T09:19:25;9.80;;;5.87;;
11396;SDS011;5754;43.726;7.416;2023-06-10T09:22:00;9.10;;;6.12;;
11396;SDS011;5754;43.726;7.416;2023-06-10T09:24:36;7.57;;;6.43;;
11396;SDS011;5754;43.726;7.416;2023-06-10T09:27:13;8.25;;;6.20;;
11396;SDS011;5754;43.726;7.416;2023-06-10T09:29:51;7.55;;;5.90;;
11396;SDS011;5754;43.726;7.416;2023-06-10T09:32:26;8.23;;;6.22;;
11396;SDS011;5754;43.726;7.416;2023-06-10T09:35:02;8.07;;;6.85;;
11396;SDS011;5754;43.726;7.416;2023-06-10T09:37:43;10.35;;;6.85;;
11396;SDS011;5754;43.726;7.416;2023-06-10T09:40:18;9.38;;;6.12;;
11396;SDS011;5754;43.726;7.416;2023-06-10T09:42:54;10.70;;;5.60;;
11396;SDS011;5754;43.726;7.416;2023-06-10T09:45:29;9.50;;;4.53;;
11396;SDS011;5754;43.726;7.416;2023-06-10T09:48:07;6.37;;;5.00;;
11396;SDS011;5754;43.726;7.416;2023-06-10T09:50:42;6.53;;;4.43;;
11396;SDS011;5754;43.726;7.416;2023-06-10T09:53:17;7.37;;;4.20;;
11396;SDS011;5754;43.726;7.416;2023-06-10T09:55:52;8.13;;;4.43;;
11396;SDS011;5754;43.726;7.416;2023-06-10T09:58:36;6.62;;;4.57;;
11396;SDS011;5754;43.726;7.416;2023-06-10T10:01:11;7.43;;;4.55;;
11396;SDS011;5754;43.726;7.416;2023-06-10T10:03:48;6.62;;;4.62;;
11396;SDS011;5754;43.726;7.416;2023-06-10T10:06:36;7.47;;;4.70;;
11396;SDS011;5754;43.726;7.416;2023-06-10T10:09:15;8.98;;;4.65;;
11396;SDS011;5754;43.726;7.416;2023-06-10T10:11:50;6.43;;;4.20;;
11396;SDS011;5754;43.726;7.416;2023-06-10T10:14:28;7.00;;;4.57;;
11396;SDS011;5754;43.726;7.416;2023-06-10T10:17:10;7.05;;;4.10;;
11396;SDS011;5754;43.726;7.416;2023-06-10T10:19:50;6.65;;;4.47;;
11396;SDS011;5754;43.726;7.416;2023-06-10T10:22:26;8.27;;;4.43;;
11396;SDS011;5754;43.726;7.416;2023-06-10T10:25:05;6.82;;;4.18;;
11396;SDS011;5754;43.726;7.416;2023-06-10T10:27:44;6.87;;;4.18;;
11396;SDS011;5754;43.726;7.416;2023-06-10T10:30:20;10.40;;;4.70;;
11396;SDS011;5754;43.726;7.416;2023-06-10T10:37:01;7.30;;;4.50;;
11396;SDS011;5754;43.726;7.416;2023-06-10T10:39:49;8.55;;;4.87;;
11396;SDS011;5754;43.726;7.416;2023-06-10T10:42:25;6.32;;;4.50;;
11396;SDS011;5754;43.726;7.416;2023-06-10T10:45:00;8.82;;;4.62;;
11396;SDS011;5754;43.726;7.416;2023-06-10T10:47:36;7.78;;;4.60;;
11396;SDS011;5754;43.726;7.416;2023-06-10T10:50:15;8.15;;;4.50;;
11396;SDS011;5754;43.726;7.416;2023-06-10T10:55:44;7.93;;;4.65;;
11396;SDS011;5754;43.726;7.416;2023-06-10T10:58:35;6.20;;;4.62;;
11396;SDS011;5754;43.726;7.416;2023-06-10T11:01:11;6.00;;;4.80;;
11396;SDS011;5754;43.726;7.416;2023-06-10T11:03:46;9.30;;;4.97;;
11396;SDS011;5754;43.726;7.416;2023-06-10T11:06:22;8.60;;;5.35;;
11396;SDS011;5754;43.726;7.416;2023-06-10T11:08:58;9.13;;;5.10;;
11396;SDS011;5754;43.726;7.416;2023-06-10T11:11:36;5.97;;;4.87;;
11396;SDS011;5754;43.726;7.416;2023-06-10T11:14:27;11.02;;;5.20;;
11396;SDS011;5754;43.726;7.416;2023-06-10T11:17:02;7.35;;;5.32;;
11396;SDS011;5754;43.726;7.416;2023-06-10T11:19:52;9.68;;;5.00;;
11396;SDS011;5754;43.726;7.416;2023-06-10T11:22:28;7.50;;;4.70;;
11396;SDS011;5754;43.726;7.416;2023-06-10T11:25:04;9.73;;;5.25;;
11396;SDS011;5754;43.726;7.416;2023-06-10T11:27:48;7.07;;;5.10;;
11396;SDS011;5754;43.726;7.416;2023-06-10T11:30:25;7.22;;;4.85;;
11396;SDS011;5754;43.726;7.416;2023-06-10T11:33:01;8.45;;;4.82;;
11396;SDS011;5754;43.726;7.416;2023-06-10T11:35:36;6.43;;;4.93;;
11396;SDS011;5754;43.726;7.416;2023-06-10T11:38:11;11.45;;;5.55;;
11396;SDS011;5754;43.726;7.416;2023-06-10T11:40:49;9.15;;;5.30;;
11396;SDS011;5754;43.726;7.416;2023-06-10T11:43:24;9.48;;;4.62;;
11396;SDS011;5754;43.726;7.416;2023-06-10T11:45:59;7.12;;;4.57;;
11396;SDS011;5754;43.726;7.416;2023-06-10T11:48:34;7.12;;;4.87;;
11396;SDS011;5754;43.726;7.416;2023-06-10T11:51:21;5.97;;;4.37;;
11396;SDS011;5754;43.726;7.416;2023-06-10T11:53:59;7.80;;;4.50;;
11396;SDS011;5754;43.726;7.416;2023-06-10T11:56:34;5.45;;;4.22;;
11396;SDS011;5754;43.726;7.416;2023-06-10T11:59:10;7.47;;;5.00;;
11396;SDS011;5754;43.726;7.416;2023-06-10T12:01:44;8.50;;;4.72;;
11396;SDS011;5754;43.726;7.416;2023-06-10T12:04:20;7.18;;;4.55;;
11396;SDS011;5754;43.726;7.416;2023-06-10T12:06:56;6.53;;;4.22;;
11396;SDS011;5754;43.726;7.416;2023-06-10T12:09:32;7.30;;;4.30;;
11396;SDS011;5754;43.726;7.416;2023-06-10T12:12:07;8.00;;;5.00;;
11396;SDS011;5754;43.726;7.416;2023-06-10T12:14:57;10.23;;;5.18;;
11396;SDS011;5754;43.726;7.416;2023-06-10T12:17:36;9.75;;;5.07;;
11396;SDS011;5754;43.726;7.416;2023-06-10T12:20:31;8.65;;;4.37;;
11396;SDS011;5754;43.726;7.416;2023-06-10T12:23:10;10.52;;;5.20;;
11396;SDS011;5754;43.726;7.416;2023-06-10T12:25:50;9.32;;;5.60;;
11396;SDS011;5754;43.726;7.416;2023-06-10T12:28:27;10.50;;;5.65;;
11396;SDS011;5754;43.726;7.416;2023-06-10T12:31:06;8.13;;;6.32;;
11396;SDS011;5754;43.726;7.416;2023-06-10T12:33:43;9.98;;;5.55;;
11396;SDS011;5754;43.726;7.416;2023-06-10T12:36:20;9.52;;;5.35;;
11396;SDS011;5754;43.726;7.416;2023-06-10T12:39:02;11.90;;;5.45;;
11396;SDS011;5754;43.726;7.416;2023-06-10T12:41:39;12.40;;;5.57;;
11396;SDS011;5754;43.726;7.416;2023-06-10T12:44:15;14.63;;;5.05;;
11396;SDS011;5754;43.726;7.416;2023-06-10T12:46:54;6.82;;;4.80;;
11396;SDS011;5754;43.726;7.416;2023-06-10T12:49:29;8.88;;;5.37;;
11396;SDS011;5754;43.726;7.416;2023-06-10T12:52:18;8.45;;;5.32;;
11396;SDS011;5754;43.726;7.416;2023-06-10T12:54:54;8.38;;;4.87;;
11396;SDS011;5754;43.726;7.416;2023-06-10T12:57:30;11.05;;;5.50;;
11396;SDS011;5754;43.726;7.416;2023-06-10T13:00:06;8.23;;;5.25;;
11396;SDS011;5754;43.726;7.416;2023-06-10T13:02:43;7.53;;;5.03;;
11396;SDS011;5754;43.726;7.416;2023-06-10T13:05:20;11.65;;;5.65;;
11396;SDS011;5754;43.726;7.416;2023-06-10T13:07:57;12.02;;;5.93;;
11396;SDS011;5754;43.726;7.416;2023-06-10T13:10:32;10.50;;;5.50;;
11396;SDS011;5754;43.726;7.416;2023-06-10T13:13:07;10.43;;;6.07;;
11396;SDS011;5754;43.726;7.416;2023-06-10T13:15:44;10.20;;;5.97;;
11396;SDS011;5754;43.726;7.416;2023-06-10T13:18:18;9.45;;;5.32;;
11396;SDS011;5754;43.726;7.416;2023-06-10T13:20:57;9.30;;;5.05;;
11396;SDS011;5754;43.726;7.416;2023-06-10T13:23:32;7.82;;;5.15;;
11396;SDS011;5754;43.726;7.416;2023-06-10T13:26:07;10.10;;;5.70;;
11396;SDS011;5754;43.726;7.416;2023-06-10T13:28:43;11.05;;;5.05;;
11396;SDS011;5754;43.726;7.416;2023-06-10T13:31:18;10.35;;;5.07;;
11396;SDS011;5754;43.726;7.416;2023-06-10T13:33:54;7.37;;;4.43;;
11396;SDS011;5754;43.726;7.416;2023-06-10T13:36:29;9.32;;;5.00;;
11396;SDS011;5754;43.726;7.416;2023-06-10T13:39:04;7.60;;;4.55;;
11396;SDS011;5754;43.726;7.416;2023-06-10T13:41:40;10.63;;;4.75;;
11396;SDS011;5754;43.726;7.416;2023-06-10T13:44:16;13.20;;;5.15;;
11396;SDS011;5754;43.726;7.416;2023-06-10T13:46:50;8.55;;;4.97;;
11396;SDS011;5754;43.726;7.416;2023-06-10T13:49:26;9.23;;;5.12;;
11396;SDS011;5754;43.726;7.416;2023-06-10T13:52:01;9.45;;;4.80;;
11396;SDS011;5754;43.726;7.416;2023-06-10T13:54:37;11.40;;;4.90;;
11396;SDS011;5754;43.726;7.416;2023-06-10T13:57:12;7.12;;;5.15;;
11396;SDS011;5754;43.726;7.416;2023-06-10T13:59:46;12.85;;;5.80;;
11396;SDS011;5754;43.726;7.416;2023-06-10T14:02:24;10.00;;;5.18;;
11396;SDS011;5754;43.726;7.416;2023-06-10T14:04:59;7.20;;;4.47;;
11396;SDS011;5754;43.726;7.416;2023-06-10T14:07:35;9.90;;;5.80;;
11396;SDS011;5754;43.726;7.416;2023-06-10T14:10:11;12.85;;;5.85;;
11396;SDS011;5754;43.726;7.416;2023-06-10T14:12:46;11.25;;;5.55;;
11396;SDS011;5754;43.726;7.416;2023-06-10T14:15:21;11.00;;;5.70;;
11396;SDS011;5754;43.726;7.416;2023-06-10T14:17:57;11.07;;;4.97;;
11396;SDS011;5754;43.726;7.416;2023-06-10T14:20:32;12.77;;;5.60;;
11396;SDS011;5754;43.726;7.416;2023-06-10T14:23:08;9.05;;;4.95;;
11396;SDS011;5754;43.726;7.416;2023-06-10T14:25:43;13.23;;;6.03;;
11396;SDS011;5754;43.726;7.416;2023-06-10T14:28:18;8.40;;;5.07;;
11396;SDS011;5754;43.726;7.416;2023-06-10T14:30:53;9.27;;;5.25;;
11396;SDS011;5754;43.726;7.416;2023-06-10T14:33:28;11.98;;;5.18;;
11396;SDS011;5754;43.726;7.416;2023-06-10T14:36:04;14.00;;;5.40;;
11396;SDS011;5754;43.726;7.416;2023-06-10T14:38:40;12.02;;;5.78;;
11396;SDS011;5754;43.726;7.416;2023-06-10T14:41:15;12.05;;;5.40;;
11396;SDS011;5754;43.726;7.416;2023-06-10T14:43:54;10.13;;;5.15;;
11396;SDS011;5754;43.726;7.416;2023-06-10T14:46:29;10.02;;;5.30;;
11396;SDS011;5754;43.726;7.416;2023-06-10T14:49:06;12.48;;;5.78;;
11396;SDS011;5754;43.726;7.416;2023-06-10T14:51:43;9.60;;;5.15;;
11396;SDS011;5754;43.726;7.416;2023-06-10T14:54:18;11.60;;;5.95;;
11396;SDS011;5754;43.726;7.416;2023-06-10T14:56:54;16.60;;;6.10;;
11396;SDS011;5754;43.726;7.416;2023-06-10T14:59:29;10.38;;;5.47;;
11396;SDS011;5754;43.726;7.416;2023-06-10T15:02:04;10.32;;;5.03;;
11396;SDS011;5754;43.726;7.416;2023-06-10T15:04:53;11.70;;;5.68;;
11396;SDS011;5754;43.726;7.416;2023-06-10T15:07:28;11.60;;;5.95;;
11396;SDS011;5754;43.726;7.416;2023-06-10T15:10:06;13.55;;;5.68;;
11396;SDS011;5754;43.726;7.416;2023-06-10T15:12:41;11.68;;;5.50;;
11396;SDS011;5754;43.726;7.416;2023-06-10T15:15:16;15.95;;;9.35;;
11396;SDS011;5754;43.726;7.416;2023-06-10T15:17:52;15.15;;;6.55;;
11396;SDS011;5754;43.726;7.416;2023-06-10T15:20:27;11.25;;;6.12;;
11396;SDS011;5754;43.726;7.416;2023-06-10T15:23:02;16.17;;;7.00;;
11396;SDS011;5754;43.726;7.416;2023-06-10T15:25:37;15.25;;;6.35;;
11396;SDS011;5754;43.726;7.416;2023-06-10T15:28:15;16.12;;;6.37;;
11396;SDS011;5754;43.726;7.416;2023-06-10T15:30:51;17.25;;;6.82;;
11396;SDS011;5754;43.726;7.416;2023-06-10T15:33:27;13.27;;;6.72;;
11396;SDS011;5754;43.726;7.416;2023-06-10T15:36:02;13.45;;;6.60;;
11396;SDS011;5754;43.726;7.416;2023-06-10T15:38:39;14.95;;;6.10;;
11396;SDS011;5754;43.726;7.416;2023-06-10T15:41:15;11.35;;;5.82;;
11396;SDS011;5754;43.726;7.416;2023-06-10T15:43:51;9.10;;;5.57;;
11396;SDS011;5754;43.726;7.416;2023-06-10T15:46:29;10.65;;;6.47;;
11396;SDS011;5754;43.726;7.416;2023-06-10T15:49:06;10.60;;;5.47;;
11396;SDS011;5754;43.726;7.416;2023-06-10T15:51:42;12.32;;;5.97;;
11396;SDS011;5754;43.726;7.416;2023-06-10T15:54:18;11.47;;;7.03;;
11396;SDS011;5754;43.726;7.416;2023-06-10T15:56:53;12.23;;;6.93;;
11396;SDS011;5754;43.726;7.416;2023-06-10T15:59:29;10.60;;;6.00;;
11396;SDS011;5754;43.726;7.416;2023-06-10T16:02:04;10.90;;;5.40;;
11396;SDS011;5754;43.726;7.416;2023-06-10T16:04:39;7.07;;;5.28;;